Time;durP1;ratioP1;P1;durP2;ratioP2;P2;SDS_P1;SDS_P2;PMS_P1;PMS_P2;Temp;Humidity;BMP_temperature;BMP_pressure;BME280_temperature;BME280_humidity;BME280_pressure;Samples;Min_cycle;Max_cycle;Signal;HPM_P1;HPM_P2
2021/10/06 00:00:52;;;;;;;8.68;5.35;;;;;;;17.41;62.61;99713.09;1776906;80;21045;-90
2021/10/06 00:03:18;;;;;;;9.08;5.47;;;;;;;17.40;62.74;99715.91;1765746;80;21273;-89
2021/10/06 00:05:43;;;;;;;8.10;5.60;;;;;;;17.39;62.67;99712.42;1759032;80;21004;-90
2021/10/06 00:08:10;;;;;;;6.90;5.40;;;;;;;17.40;63.05;99714.58;1771210;80;20954;-89
2021/10/06 00:10:37;;;;;;;6.95;5.35;;;;;;;17.39;63.02;99719.09;1772833;80;21017;-89
2021/10/06 00:13:03;;;;;;;9.48;6.20;;;;;;;17.37;62.94;99719.75;1771931;80;21013;-90
2021/10/06 00:15:29;;;;;;;7.75;5.00;;;;;;;17.37;62.96;99721.58;1756666;80;21020;-89
2021/10/06 00:17:55;;;;;;;9.35;6.35;;;;;;;17.36;62.97;99724.76;1770142;80;20960;-89
2021/10/06 00:20:21;;;;;;;11.25;6.25;;;;;;;17.37;63.09;99714.91;1764868;80;20961;-89
2021/10/06 00:22:47;;;;;;;7.35;5.55;;;;;;;17.37;63.47;99714.91;1766543;80;21506;-89
2021/10/06 00:25:13;;;;;;;9.88;5.87;;;;;;;17.35;63.59;99721.27;1744543;80;21017;-89
2021/10/06 00:27:39;;;;;;;9.25;6.80;;;;;;;17.35;63.79;99723.93;1769523;80;20984;-90
2021/10/06 00:30:06;;;;;;;8.68;5.40;;;;;;;17.34;63.60;99722.75;1770874;80;21016;-89
2021/10/06 00:32:32;;;;;;;8.80;5.58;;;;;;;17.31;63.63;99727.95;1760566;80;20967;-89
2021/10/06 00:34:58;;;;;;;14.03;7.37;;;;;;;17.30;63.67;99729.43;1769979;80;21537;-89
2021/10/06 00:37:24;;;;;;;7.87;5.72;;;;;;;17.28;63.99;99722.95;1771781;80;20984;-89
2021/10/06 00:39:50;;;;;;;9.60;7.17;;;;;;;17.28;64.32;99708.28;1762149;80;21023;-89
2021/10/06 00:42:16;;;;;;;8.80;5.67;;;;;;;17.26;64.40;99712.11;1766674;80;20981;-89
2021/10/06 00:44:42;;;;;;;6.20;5.08;;;;;;;17.25;64.57;99718.45;1771279;80;20949;-90
2021/10/06 00:47:13;;;;;;;10.63;6.05;;;;;;;17.24;64.48;99722.10;1767411;80;20985;-89
2021/10/06 00:49:41;;;;;;;7.08;5.78;;;;;;;17.22;64.82;99732.95;1765222;80;21052;-92
2021/10/06 00:52:12;;;;;;;8.48;5.87;;;;;;;17.22;64.91;99735.62;1769866;80;21056;-91
2021/10/06 00:54:38;;;;;;;11.38;6.20;;;;;;;17.22;65.23;99743.61;1771101;80;21013;-90
2021/10/06 00:57:05;;;;;;;10.40;6.03;;;;;;;17.22;65.48;99742.28;1768442;80;20981;-91
2021/10/06 00:59:32;;;;;;;13.83;7.40;;;;;;;17.22;65.84;99734.28;1767808;80;21036;-91
2021/10/06 01:01:58;;;;;;;9.88;6.37;;;;;;;17.22;66.22;99739.62;1758041;80;21486;-90
2021/10/06 01:04:24;;;;;;;10.45;6.72;;;;;;;17.21;66.46;99740.63;1762430;80;20989;-90
2021/10/06 01:06:51;;;;;;;7.80;5.53;;;;;;;17.19;66.56;99741.28;1772048;80;21531;-90
2021/10/06 01:09:17;;;;;;;8.83;6.22;;;;;;;17.19;66.50;99745.78;1762317;80;20964;-90
2021/10/06 01:11:43;;;;;;;10.78;6.92;;;;;;;17.18;66.52;99751.63;1766000;80;20985;-90
2021/10/06 01:14:09;;;;;;;13.72;6.20;;;;;;;17.19;66.81;99748.45;1766339;80;21044;-91
2021/10/06 01:16:36;;;;;;;9.53;6.70;;;;;;;17.17;66.92;99749.11;1759770;80;21001;-90
2021/10/06 01:19:02;;;;;;;12.73;6.40;;;;;;;17.17;66.96;99755.77;1762158;80;21540;-90
2021/10/06 01:21:28;;;;;;;9.25;6.28;;;;;;;17.15;67.09;99754.63;1761562;80;20926;-91
2021/10/06 01:23:54;;;;;;;8.18;6.22;;;;;;;17.14;67.10;99757.44;1766365;80;21535;-91
2021/10/06 01:26:21;;;;;;;10.78;6.30;;;;;;;17.13;67.43;99755.78;1770696;80;20969;-90
2021/10/06 01:28:53;;;;;;;8.65;6.90;;;;;;;17.13;67.54;99748.62;1766131;80;20941;-91
2021/10/06 01:31:26;;;;;;;12.75;7.08;;;;;;;17.13;67.66;99749.95;1779632;80;21052;-91
2021/10/06 01:33:52;;;;;;;12.85;7.10;;;;;;;17.13;67.63;99749.13;1769034;80;20993;-90
2021/10/06 01:36:18;;;;;;;10.35;7.58;;;;;;;17.14;67.76;99746.27;1771699;80;21614;-90
2021/10/06 01:38:44;;;;;;;9.98;6.92;;;;;;;17.15;67.91;99747.95;1766861;80;21005;-90
2021/10/06 01:41:11;;;;;;;10.55;6.85;;;;;;;17.17;68.01;99753.11;1747508;80;21009;-90
2021/10/06 01:43:37;;;;;;;7.67;5.80;;;;;;;17.17;67.99;99756.60;1767705;80;20977;-90
2021/10/06 01:46:03;;;;;;;11.12;6.45;;;;;;;17.18;68.16;99751.63;1762377;80;20978;-91
2021/10/06 01:48:29;;;;;;;10.48;6.72;;;;;;;17.17;68.27;99757.94;1765407;80;21467;-91
2021/10/06 01:50:55;;;;;;;11.45;6.08;;;;;;;17.16;68.32;99760.78;1772353;80;20953;-90
2021/10/06 01:53:21;;;;;;;9.43;6.67;;;;;;;17.16;68.64;99762.95;1760477;80;20989;-90
2021/10/06 01:55:47;;;;;;;8.68;6.45;;;;;;;17.17;68.75;99760.60;1768071;80;20973;-92
2021/10/06 01:58:19;;;;;;;9.73;6.12;;;;;;;17.19;68.86;99761.78;1783463;80;21026;-92
2021/10/06 02:00:49;;;;;;;9.33;6.65;;;;;;;17.19;68.98;99761.28;1760053;80;21001;-92
2021/10/06 02:03:14;;;;;;;11.12;7.05;;;;;;;17.20;69.11;99756.27;1762332;80;21463;-91
2021/10/06 02:05:41;;;;;;;11.48;7.78;;;;;;;17.19;69.47;99765.28;1771600;80;20985;-91
2021/10/06 02:08:09;;;;;;;11.18;7.50;;;;;;;17.19;69.47;99765.28;1785195;80;20977;-94
2021/10/06 02:10:37;;;;;;;11.73;6.95;;;;;;;17.19;69.74;99762.61;1758007;80;21017;-92
2021/10/06 02:13:04;;;;;;;9.43;7.17;;;;;;;17.19;69.78;99757.28;1734771;82;21685;-94
2021/10/06 02:15:30;;;;;;;11.55;6.92;;;;;;;17.19;69.90;99761.28;1780704;80;20974;-94
2021/10/06 02:17:56;;;;;;;9.30;6.28;;;;;;;17.20;69.92;99768.27;1785085;80;20966;-91
2021/10/06 02:20:22;;;;;;;10.50;7.05;;;;;;;17.22;70.12;99770.28;1753678;80;20997;-91
2021/10/06 02:22:49;;;;;;;8.95;7.10;;;;;;;17.22;70.17;99765.45;1736521;80;21072;-93
2021/10/06 02:25:15;;;;;;;8.40;6.42;;;;;;;17.23;70.29;99761.27;1735775;82;21006;-92
2021/10/06 02:27:41;;;;;;;8.93;6.80;;;;;;;17.24;70.31;99766.95;1764453;80;21000;-92
2021/10/06 02:30:08;;;;;;;11.93;7.00;;;;;;;17.26;70.36;99780.93;1784681;80;21023;-92
2021/10/06 02:32:35;;;;;;;15.03;8.30;;;;;;;17.28;70.64;99784.78;1777876;80;20977;-91
2021/10/06 02:35:01;;;;;;;10.18;7.62;;;;;;;17.28;70.66;99781.61;1784550;80;21493;-90
2021/10/06 02:37:27;;;;;;;14.85;7.47;;;;;;;17.28;71.25;99778.94;1781811;80;20930;-92
2021/10/06 02:39:53;;;;;;;12.90;7.90;;;;;;;17.26;71.23;99780.93;1781627;80;20941;-90
2021/10/06 02:42:19;;;;;;;11.43;8.90;;;;;;;17.28;71.79;99786.11;1784279;80;21053;-91
2021/10/06 02:44:45;;;;;;;11.00;9.03;;;;;;;17.28;73.47;99788.27;1725815;82;21033;-91
2021/10/06 02:47:11;;;;;;;12.00;9.70;;;;;;;17.26;74.04;99788.10;1748097;82;21080;-91
2021/10/06 02:49:37;;;;;;;10.32;8.73;;;;;;;17.27;74.24;99794.58;1749113;80;21527;-90
2021/10/06 02:52:04;;;;;;;11.73;10.08;;;;;;;17.27;75.45;99781.25;1767008;80;21043;-90
2021/10/06 02:54:31;;;;;;;12.58;10.08;;;;;;;17.29;75.32;99784.59;1783575;80;20981;-89
2021/10/06 02:57:01;;;;;;;12.78;10.78;;;;;;;17.30;75.43;99779.59;1784734;80;21021;-90
2021/10/06 02:59:24;;;;;;;15.23;11.95;;;;;;;17.30;76.25;99786.76;1760437;80;21058;-90
2021/10/06 03:01:50;;;;;;;13.90;10.95;;;;;;;17.31;76.26;99789.78;1752116;80;20998;-89
2021/10/06 03:04:16;;;;;;;14.85;11.10;;;;;;;17.29;77.27;99787.27;1783967;80;20982;-90
2021/10/06 03:06:42;;;;;;;16.00;12.75;;;;;;;17.26;77.67;99794.27;1763753;80;20973;-91
2021/10/06 03:09:08;;;;;;;16.27;12.40;;;;;;;17.23;78.08;99806.59;1771547;80;21013;-90
2021/10/06 03:11:34;;;;;;;15.05;12.60;;;;;;;17.18;78.45;99802.28;1752128;80;21017;-90
2021/10/06 03:14:00;;;;;;;17.73;13.93;;;;;;;17.17;78.31;99809.09;1745016;80;21144;-91
2021/10/06 03:16:26;;;;;;;17.07;13.72;;;;;;;17.16;78.88;99806.93;1780646;80;22196;-91
2021/10/06 03:18:52;;;;;;;16.52;13.30;;;;;;;17.10;79.01;99802.26;1738151;80;21052;-91
2021/10/06 03:21:18;;;;;;;15.18;12.68;;;;;;;17.09;79.13;99817.42;1751879;80;21464;-91
2021/10/06 03:23:44;;;;;;;15.32;12.70;;;;;;;17.08;79.50;99827.77;1738371;80;21077;-90
2021/10/06 03:26:10;;;;;;;18.30;13.70;;;;;;;17.03;79.75;99835.91;1784890;80;21479;-90
2021/10/06 03:28:36;;;;;;;19.73;13.75;;;;;;;17.01;79.50;99843.22;1782037;80;20978;-90
2021/10/06 03:31:02;;;;;;;20.45;14.33;;;;;;;17.03;79.67;99850.57;1783771;80;21483;-89
2021/10/06 03:33:28;;;;;;;19.15;14.63;;;;;;;17.01;79.44;99852.08;1784289;80;20985;-89
2021/10/06 03:35:53;;;;;;;19.77;14.55;;;;;;;16.98;79.47;99851.55;1781782;80;21021;-89
2021/10/06 03:38:20;;;;;;;17.57;13.58;;;;;;;16.95;79.35;99858.06;1783215;80;21041;-89
2021/10/06 03:40:46;;;;;;;15.05;12.30;;;;;;;16.92;79.08;99868.22;1779347;80;20994;-90
2021/10/06 03:43:12;;;;;;;13.95;10.18;;;;;;;16.88;79.40;99877.88;1736236;80;21037;-90
2021/10/06 03:45:38;;;;;;;13.10;8.53;;;;;;;16.83;79.19;99887.34;1748819;80;21073;-89
2021/10/06 03:48:04;;;;;;;10.20;7.53;;;;;;;16.71;79.17;99889.42;1736286;80;21044;-89
2021/10/06 03:50:31;;;;;;;9.08;6.67;;;;;;;16.63;79.06;99897.40;1736399;80;20978;-90
2021/10/06 03:52:57;;;;;;;8.63;7.72;;;;;;;16.54;78.99;99901.02;1726886;80;21478;-90
2021/10/06 03:55:23;;;;;;;9.23;6.95;;;;;;;16.49;79.12;99903.34;1767846;80;20957;-90
2021/10/06 03:57:49;;;;;;;7.75;6.25;;;;;;;16.45;79.25;99909.45;1783640;80;21503;-90
2021/10/06 04:00:15;;;;;;;6.25;3.45;;;;;;;16.40;79.17;99904.63;1743612;80;20973;-89
2021/10/06 04:02:42;;;;;;;5.87;3.75;;;;;;;16.31;78.73;99912.22;1736060;80;21550;-90
2021/10/06 04:05:10;;;;;;;4.85;3.47;;;;;;;16.23;78.64;99912.20;1776428;80;21001;-88
2021/10/06 04:07:36;;;;;;;3.67;3.37;;;;;;;16.20;78.52;99915.17;1755797;80;20953;-90
2021/10/06 04:10:04;;;;;;;4.50;3.25;;;;;;;16.12;78.33;99911.97;1782826;80;20965;-91
2021/10/06 04:12:30;;;;;;;5.12;3.05;;;;;;;16.06;78.37;99917.09;1777633;80;20989;-90
2021/10/06 04:14:56;;;;;;;3.72;2.95;;;;;;;16.03;78.40;99918.73;1754382;80;21012;-89
2021/10/06 04:17:22;;;;;;;2.62;2.22;;;;;;;15.98;78.30;99927.16;1754085;80;20993;-90
2021/10/06 04:19:48;;;;;;;5.10;2.83;;;;;;;15.97;78.42;99928.66;1736056;80;20996;-90
2021/10/06 04:22:14;;;;;;;4.03;2.87;;;;;;;15.97;78.39;99932.66;1748802;80;21052;-90
2021/10/06 04:24:40;;;;;;;3.98;2.80;;;;;;;15.94;78.45;99934.63;1746375;80;20972;-91
2021/10/06 04:27:06;;;;;;;4.33;3.08;;;;;;;15.90;78.51;99937.77;1757917;80;20996;-90
2021/10/06 04:29:32;;;;;;;3.92;2.58;;;;;;;15.88;78.38;99939.73;1745353;80;21005;-90
2021/10/06 04:31:58;;;;;;;3.75;2.58;;;;;;;15.84;78.32;99940.54;1755363;80;20985;-90
2021/10/06 04:34:24;;;;;;;5.05;2.72;;;;;;;15.81;78.31;99945.34;1756343;80;20994;-90
2021/10/06 04:36:50;;;;;;;3.67;2.85;;;;;;;15.80;78.37;99941.84;1753648;81;21017;-90
2021/10/06 04:39:16;;;;;;;3.10;2.40;;;;;;;15.78;78.27;99942.98;1754006;81;21042;-90
2021/10/06 04:41:42;;;;;;;5.28;2.90;;;;;;;15.77;78.24;99938.16;1753678;81;21024;-90
2021/10/06 04:44:08;;;;;;;4.65;2.70;;;;;;;15.77;78.31;99934.17;1754052;82;21494;-90
2021/10/06 04:46:35;;;;;;;5.37;3.25;;;;;;;15.77;78.18;99934.17;1753833;81;21522;-90
2021/10/06 04:49:02;;;;;;;4.37;2.60;;;;;;;15.77;78.16;99934.17;1754042;81;21021;-90
2021/10/06 04:51:29;;;;;;;5.28;2.98;;;;;;;15.79;78.36;99948.13;1753585;82;21121;-91
2021/10/06 04:53:55;;;;;;;5.28;3.50;;;;;;;15.80;78.40;99965.79;1753930;82;21059;-90
2021/10/06 04:56:21;;;;;;;2.92;2.50;;;;;;;15.78;78.42;99964.26;1753977;81;21011;-90
2021/10/06 04:58:48;;;;;;;5.10;3.22;;;;;;;15.79;78.62;99965.92;1753801;81;21036;-90
2021/10/06 05:01:14;;;;;;;3.70;2.40;;;;;;;15.80;78.69;99971.11;1753952;81;21009;-90
2021/10/06 05:03:40;;;;;;;4.90;3.47;;;;;;;15.78;78.75;99973.08;1753864;81;21017;-91
2021/10/06 05:06:06;;;;;;;3.95;2.65;;;;;;;15.75;79.00;99980.53;1754030;81;21057;-90
2021/10/06 05:08:35;;;;;;;4.28;2.90;;;;;;;15.74;79.22;99989.50;1753765;81;21045;-90
2021/10/06 05:11:01;;;;;;;4.75;3.00;;;;;;;15.71;79.34;99988.81;1753609;81;21532;-90
2021/10/06 05:13:27;;;;;;;6.47;3.80;;;;;;;15.69;79.33;99989.48;1753987;82;20978;-90
2021/10/06 05:15:53;;;;;;;6.72;4.53;;;;;;;15.67;79.43;99990.61;1753817;81;21040;-90
2021/10/06 05:18:19;;;;;;;6.83;3.55;;;;;;;15.68;79.83;99998.92;1773779;80;20960;-90
2021/10/06 05:20:45;;;;;;;5.50;3.72;;;;;;;15.65;80.00;100007.17;1762422;80;21486;-92
2021/10/06 05:23:11;;;;;;;4.12;3.52;;;;;;;15.62;80.19;100015.45;1783944;80;21144;-93
2021/10/06 05:25:37;;;;;;;5.05;3.70;;;;;;;15.56;80.77;100023.53;1754154;81;21565;-93
2021/10/06 05:28:04;;;;;;;5.55;3.83;;;;;;;15.49;80.96;100029.94;1753806;82;21435;-94
2021/10/06 05:30:30;;;;;;;8.05;5.00;;;;;;;15.43;80.83;100030.57;1754225;81;21016;-95
2021/10/06 05:32:56;;;;;;;7.83;5.25;;;;;;;15.43;80.99;100039.02;1754204;82;21529;-94
2021/10/06 05:35:22;;;;;;;6.05;3.85;;;;;;;15.40;81.06;100040.64;1753925;82;21035;-93
2021/10/06 05:37:48;;;;;;;5.90;4.45;;;;;;;15.37;81.40;100040.47;1754217;82;21031;-94
2021/10/06 05:40:16;;;;;;;6.37;4.08;;;;;;;15.34;82.17;100035.95;1753988;82;21008;-94
2021/10/06 05:42:42;;;;;;;5.50;4.45;;;;;;;15.28;82.05;100030.72;1753983;82;21027;-94
2021/10/06 05:45:09;;;;;;;5.45;4.60;;;;;;;15.24;82.01;100030.19;1754022;81;20983;-94
2021/10/06 05:47:35;;;;;;;7.22;4.90;;;;;;;15.22;82.20;100029.98;1753877;82;21553;-94
2021/10/06 05:50:02;;;;;;;6.80;4.92;;;;;;;15.19;82.27;100033.77;1754194;82;20995;-94
2021/10/06 05:52:28;;;;;;;7.17;4.47;;;;;;;15.21;82.60;100036.30;1753802;82;21067;-94
2021/10/06 05:54:54;;;;;;;5.95;4.30;;;;;;;15.21;82.74;100042.44;1726872;82;20972;-94
2021/10/06 05:57:20;;;;;;;5.22;4.12;;;;;;;15.23;83.01;100047.13;1753715;82;21466;-94
2021/10/06 05:59:46;;;;;;;4.90;4.40;;;;;;;15.24;83.27;100050.13;1754071;81;21064;-94
2021/10/06 06:02:12;;;;;;;5.22;4.17;;;;;;;15.25;83.13;100053.61;1726844;82;21039;-93
2021/10/06 06:04:38;;;;;;;6.78;5.35;;;;;;;15.23;83.25;100058.22;1753826;82;21000;-94
2021/10/06 06:07:05;;;;;;;5.60;4.87;;;;;;;15.23;83.43;100072.38;1753971;82;21526;-93
2021/10/06 06:09:31;;;;;;;6.03;4.67;;;;;;;15.22;83.07;100067.19;1726643;82;21071;-93
2021/10/06 06:11:57;;;;;;;6.47;5.03;;;;;;;15.14;83.37;100055.15;1754009;82;21553;-93
2021/10/06 06:14:23;;;;;;;6.53;5.55;;;;;;;15.22;83.41;100075.16;1754092;81;21036;-93
2021/10/06 06:16:49;;;;;;;7.85;5.25;;;;;;;15.21;83.39;100083.64;1753976;82;21012;-94
2021/10/06 06:19:15;;;;;;;6.58;5.62;;;;;;;15.23;84.15;100091.45;1754203;82;21078;-94
2021/10/06 06:21:42;;;;;;;8.68;5.92;;;;;;;15.22;84.14;100095.09;1753819;81;21305;-93
2021/10/06 06:24:08;;;;;;;6.92;5.28;;;;;;;15.07;83.97;100076.62;1753851;82;21035;-93
2021/10/06 06:26:34;;;;;;;7.70;5.03;;;;;;;15.18;84.18;100105.19;1753894;82;21018;-93
2021/10/06 06:29:00;;;;;;;5.87;5.05;;;;;;;15.17;84.07;100106.68;1754060;82;21482;-93
2021/10/06 06:31:26;;;;;;;7.62;6.10;;;;;;;15.16;83.88;100118.27;1753801;81;21027;-93
2021/10/06 06:33:52;;;;;;;7.78;5.78;;;;;;;15.15;83.93;100120.09;1753958;82;21577;-93
2021/10/06 06:36:18;;;;;;;6.05;4.72;;;;;;;15.05;83.95;100117.14;1754071;81;21012;-93
2021/10/06 06:38:44;;;;;;;7.28;4.87;;;;;;;15.09;84.18;100126.48;1753903;82;21020;-93
2021/10/06 06:41:10;;;;;;;6.70;5.47;;;;;;;15.08;84.38;100127.48;1754060;81;21004;-93
2021/10/06 06:43:36;;;;;;;5.53;4.90;;;;;;;15.07;84.45;100129.30;1754048;82;21506;-92
2021/10/06 06:46:02;;;;;;;6.80;5.58;;;;;;;15.07;84.64;100125.31;1753905;81;20972;-93
2021/10/06 06:48:28;;;;;;;7.92;4.95;;;;;;;15.09;84.59;100130.47;1757674;81;20965;-93
2021/10/06 06:50:54;;;;;;;5.67;5.03;;;;;;;15.10;84.66;100138.28;1754026;81;21007;-93
2021/10/06 06:53:22;;;;;;;6.45;5.62;;;;;;;15.10;84.88;100135.63;1757280;81;21536;-93
2021/10/06 06:55:48;;;;;;;7.08;5.20;;;;;;;15.12;84.78;100144.80;1762214;80;21026;-93
2021/10/06 06:58:15;;;;;;;6.97;5.28;;;;;;;15.12;84.97;100144.30;1753859;81;21054;-93
2021/10/06 07:00:41;;;;;;;6.60;5.35;;;;;;;15.13;85.35;100138.49;1754057;82;21003;-93
2021/10/06 07:03:07;;;;;;;5.80;5.22;;;;;;;15.13;85.38;100141.15;1753753;82;21026;-93
2021/10/06 07:05:33;;;;;;;6.95;5.37;;;;;;;15.13;85.73;100147.30;1754029;81;21083;-92
2021/10/06 07:07:59;;;;;;;6.15;5.05;;;;;;;15.13;85.57;100143.31;1753816;81;21093;-93
2021/10/06 07:10:25;;;;;;;7.92;6.15;;;;;;;15.15;86.11;100144.02;1753946;81;21453;-93
2021/10/06 07:12:51;;;;;;;8.43;6.17;;;;;;;15.16;85.95;100143.02;1754095;81;21098;-93
2021/10/06 07:15:17;;;;;;;7.42;6.25;;;;;;;15.08;85.55;100131.47;1753970;81;20971;-92
2021/10/06 07:17:43;;;;;;;8.90;6.95;;;;;;;15.17;85.50;100139.41;1753842;81;21511;-92
2021/10/06 07:20:10;;;;;;;8.58;6.67;;;;;;;15.19;85.36;100145.89;1753854;81;21010;-92
2021/10/06 07:22:36;;;;;;;10.20;6.17;;;;;;;15.21;85.40;100150.08;1754332;81;21002;-92
2021/10/06 07:25:05;;;;;;;7.85;6.20;;;;;;;15.23;85.73;100145.94;1754056;81;21006;-93
2021/10/06 07:27:31;;;;;;;10.75;7.90;;;;;;;15.25;85.60;100147.97;1753747;81;21018;-93
2021/10/06 07:29:58;;;;;;;8.70;7.15;;;;;;;15.25;85.90;100158.11;1754138;81;21022;-93
2021/10/06 07:32:24;;;;;;;8.65;7.20;;;;;;;15.27;85.87;100151.80;1753383;82;21074;-93
2021/10/06 07:34:50;;;;;;;8.20;6.95;;;;;;;15.30;85.84;100152.84;1754120;82;21002;-94
2021/10/06 07:37:16;;;;;;;9.28;7.45;;;;;;;15.33;86.02;100154.70;1753944;82;21299;-94
2021/10/06 07:39:42;;;;;;;8.25;7.28;;;;;;;15.37;86.21;100156.11;1753911;81;20971;-94
2021/10/06 07:42:08;;;;;;;8.78;7.87;;;;;;;15.39;85.98;100150.63;1753848;81;21058;-94
2021/10/06 07:44:34;;;;;;;6.95;6.25;;;;;;;15.42;86.34;100153.84;1753871;82;21017;-93
2021/10/06 07:47:00;;;;;;;11.08;7.20;;;;;;;15.42;85.97;100155.66;1753899;81;20999;-93
2021/10/06 07:49:26;;;;;;;8.98;7.17;;;;;;;15.42;86.13;100153.00;1753942;81;20998;-93
2021/10/06 07:51:52;;;;;;;9.63;7.80;;;;;;;15.40;86.04;100160.28;1753887;82;21301;-93
2021/10/06 07:54:18;;;;;;;7.65;6.83;;;;;;;15.39;86.20;100168.75;1754119;82;21062;-93
2021/10/06 07:56:44;;;;;;;9.60;8.15;;;;;;;15.42;86.22;100172.95;1754057;81;21038;-93
2021/10/06 07:59:10;;;;;;;10.68;7.37;;;;;;;15.43;86.86;100170.16;1759106;81;21025;-92
2021/10/06 08:01:36;;;;;;;9.55;7.62;;;;;;;15.44;86.70;100172.32;1758946;81;21021;-93
2021/10/06 08:04:02;;;;;;;10.08;8.63;;;;;;;15.42;86.78;100169.79;1759210;81;21041;-92
2021/10/06 08:06:29;;;;;;;9.30;7.72;;;;;;;15.42;86.98;100173.77;1759299;81;20953;-92
2021/10/06 08:08:55;;;;;;;8.73;7.75;;;;;;;15.44;86.85;100176.31;1763868;80;21000;-92
2021/10/06 08:11:21;;;;;;;10.90;8.40;;;;;;;15.46;86.85;100175.19;1757332;80;20986;-92
2021/10/06 08:13:47;;;;;;;10.45;8.95;;;;;;;15.48;86.59;100177.68;1764503;80;21461;-92
2021/10/06 08:16:13;;;;;;;10.38;9.33;;;;;;;15.51;86.50;100179.22;1740269;82;21061;-92
2021/10/06 08:18:39;;;;;;;10.98;8.80;;;;;;;15.52;86.82;100174.23;1754015;82;21037;-92
2021/10/06 08:21:05;;;;;;;9.93;8.98;;;;;;;15.53;86.47;100175.90;1772219;80;21013;-92
2021/10/06 08:23:31;;;;;;;7.97;6.92;;;;;;;15.54;86.48;100180.25;1785076;80;21021;-92
2021/10/06 08:25:59;;;;;;;10.00;6.78;;;;;;;15.54;86.27;100193.05;1785064;80;21009;-91
2021/10/06 08:28:25;;;;;;;7.95;6.28;;;;;;;15.52;86.36;100197.67;1785053;80;21021;-92
2021/10/06 08:30:51;;;;;;;6.75;6.05;;;;;;;15.50;86.35;100195.67;1785070;80;21513;-91
2021/10/06 08:33:17;;;;;;;7.55;6.25;;;;;;;15.51;86.38;100197.83;1785153;80;21028;-91
2021/10/06 08:35:43;;;;;;;8.93;6.37;;;;;;;15.52;86.28;100206.14;1785206;80;21499;-92
2021/10/06 08:38:10;;;;;;;6.97;6.28;;;;;;;15.53;86.46;100205.16;1784996;80;21058;-91
2021/10/06 08:40:38;;;;;;;9.00;7.50;;;;;;;15.53;86.50;100216.66;1785373;80;20954;-91
2021/10/06 08:43:06;;;;;;;14.20;9.13;;;;;;;15.54;86.65;100213.50;1784909;80;21000;-91
2021/10/06 08:45:33;;;;;;;9.38;7.97;;;;;;;15.56;86.62;100215.00;1785104;80;21037;-91
2021/10/06 08:48:02;;;;;;;8.23;7.28;;;;;;;15.59;86.77;100219.20;1771644;80;21003;-91
2021/10/06 08:50:29;;;;;;;7.90;5.55;;;;;;;15.61;86.63;100220.73;1754058;82;21085;-91
2021/10/06 08:52:55;;;;;;;7.37;4.90;;;;;;;15.64;86.44;100218.28;1754127;82;21042;-91
2021/10/06 08:55:28;;;;;;;6.33;5.05;;;;;;;15.64;86.43;100223.60;1726414;82;21022;-91
2021/10/06 08:58:01;;;;;;;7.60;4.87;;;;;;;15.64;86.33;100227.59;1754213;82;21035;-91
2021/10/06 09:00:29;;;;;;;7.22;5.58;;;;;;;15.63;86.33;100237.40;1753000;82;21051;-91
2021/10/06 09:02:55;;;;;;;7.28;4.78;;;;;;;15.63;86.53;100240.52;1756831;81;20990;-91
2021/10/06 09:05:23;;;;;;;5.15;4.65;;;;;;;15.64;86.42;100235.57;1742236;81;21032;-90
2021/10/06 09:08:01;;;;;;;8.53;5.55;;;;;;;15.67;86.20;100237.47;1759153;81;21017;-91
2021/10/06 09:10:30;;;;;;;5.72;4.78;;;;;;;15.69;86.37;100246.16;1759384;81;21014;-91
2021/10/06 09:13:06;;;;;;;6.28;5.03;;;;;;;15.72;86.39;100245.00;1762290;81;21479;-90
2021/10/06 09:15:49;;;;;;;6.50;4.10;;;;;;;15.74;86.32;100247.53;1765053;81;21069;-88
2021/10/06 09:18:27;;;;;;;5.60;4.22;;;;;;;15.76;86.57;100246.41;1754071;82;21036;-91
2021/10/06 09:20:57;;;;;;;7.72;5.10;;;;;;;15.77;86.54;100251.23;1760127;81;21028;-90
2021/10/06 09:23:24;;;;;;;4.45;3.95;;;;;;;15.80;86.58;100255.77;1771119;80;21044;-90
2021/10/06 09:26:01;;;;;;;5.90;4.50;;;;;;;15.68;86.51;100227.17;1784935;80;21096;-90
2021/10/06 09:28:46;;;;;;;7.80;4.33;;;;;;;15.85;86.41;100249.99;1785063;80;20977;-90
2021/10/06 09:31:22;;;;;;;7.97;5.00;;;;;;;15.86;86.15;100252.52;1784553;80;21061;-91
2021/10/06 09:33:54;;;;;;;7.40;5.25;;;;;;;15.86;86.09;100260.50;1783649;80;21000;-90
2021/10/06 09:36:34;;;;;;;7.15;5.03;;;;;;;15.88;86.25;100273.15;1784923;80;21443;-90
2021/10/06 09:39:05;;;;;;;9.93;5.33;;;;;;;15.90;86.39;100268.53;1785126;80;21061;-91
2021/10/06 09:41:45;;;;;;;6.25;4.42;;;;;;;15.92;86.43;100263.87;1760230;80;21047;-90
2021/10/06 09:44:21;;;;;;;5.87;4.78;;;;;;;15.93;86.34;100266.91;1754129;82;21055;-91
2021/10/06 09:47:02;;;;;;;7.28;5.20;;;;;;;15.95;86.10;100271.56;1753901;82;20979;-90
2021/10/06 09:49:35;;;;;;;12.07;5.87;;;;;;;15.94;85.94;100265.91;1754182;82;21032;-90
2021/10/06 09:52:19;;;;;;;9.43;5.70;;;;;;;15.95;86.21;100274.23;1754116;82;21013;-91
2021/10/06 09:54:51;;;;;;;7.20;5.72;;;;;;;15.98;86.43;100272.27;1740375;82;21024;-90
2021/10/06 09:57:29;;;;;;;;;;;;;;;16.03;86.45;100280.67;1756639;82;21036;-90
2021/10/06 10:00:03;;;;;;;7.70;5.30;;;;;;;16.05;86.21;100274.69;1754280;82;20148;-90
2021/10/06 10:02:30;;;;;;;9.95;5.83;;;;;;;16.07;86.27;100277.55;1754125;82;21013;-92
2021/10/06 10:04:57;;;;;;;9.05;5.78;;;;;;;16.10;86.54;100273.77;1754113;82;21029;-91
2021/10/06 10:07:26;;;;;;;6.65;5.53;;;;;;;16.09;86.18;100280.05;1753880;82;21052;-90
2021/10/06 10:09:53;;;;;;;7.25;5.42;;;;;;;16.11;85.89;100282.91;1754181;82;21004;-90
2021/10/06 10:12:22;;;;;;;8.00;5.70;;;;;;;16.13;86.02;100280.13;1727020;82;21494;-90
2021/10/06 10:14:49;;;;;;;7.37;6.53;;;;;;;16.11;85.81;100276.76;1754137;82;20989;-90
2021/10/06 10:17:16;;;;;;;11.38;6.70;;;;;;;16.13;86.21;100285.45;1754031;82;21503;-90
2021/10/06 10:19:59;;;;;;;7.67;5.35;;;;;;;16.14;85.88;100285.78;1754182;82;21000;-90
2021/10/06 10:22:30;;;;;;;7.83;5.25;;;;;;;16.16;85.92;100292.64;1753957;82;21538;-90
2021/10/06 10:24:56;;;;;;;6.83;5.70;;;;;;;16.16;85.74;100291.80;1753899;82;21510;-90
2021/10/06 10:27:24;;;;;;;7.35;4.80;;;;;;;16.13;85.39;100294.77;1753993;82;21040;-90
2021/10/06 10:30:05;;;;;;;9.25;6.08;;;;;;;16.10;85.09;100299.05;1754185;82;21000;-90
2021/10/06 10:32:45;;;;;;;8.53;5.75;;;;;;;16.12;85.08;100300.58;1753891;82;21060;-90
2021/10/06 10:35:14;;;;;;;7.60;5.25;;;;;;;16.14;85.26;100304.41;1754168;82;21534;-89
2021/10/06 10:37:55;;;;;;;9.48;5.95;;;;;;;16.14;85.26;100307.08;1753966;82;20995;-88
2021/10/06 10:40:37;;;;;;;4.67;4.17;;;;;;;16.15;85.34;100308.24;1754144;82;20981;-88
2021/10/06 10:43:17;;;;;;;4.62;3.95;;;;;;;16.15;85.02;100304.75;1754143;82;21069;-89
2021/10/06 10:45:48;;;;;;;5.28;3.70;;;;;;;16.15;84.78;100307.41;1753288;82;21586;-88
2021/10/06 10:48:24;;;;;;;6.03;3.70;;;;;;;16.16;84.81;100307.28;1754018;82;20977;-88
2021/10/06 10:50:56;;;;;;;5.37;3.65;;;;;;;16.18;84.32;100310.61;1754101;82;21020;-89
2021/10/06 10:53:53;;;;;;;5.08;3.90;;;;;;;16.19;84.11;100315.47;1754160;82;21008;-88
2021/10/06 10:56:44;;;;;;;4.10;3.52;;;;;;;16.21;84.39;100315.30;1753997;82;21124;-88
2021/10/06 10:59:20;;;;;;;7.08;3.58;;;;;;;16.20;83.77;100320.30;1754176;81;21013;-89
2021/10/06 11:01:53;;;;;;;5.72;4.00;;;;;;;16.18;83.73;100312.44;1753996;82;21028;-90
2021/10/06 11:04:32;;;;;;;9.55;4.45;;;;;;;16.20;84.14;100313.14;1754124;82;20969;-89
2021/10/06 11:07:18;;;;;;;4.83;3.37;;;;;;;16.21;83.96;100309.48;1753351;82;21664;-88
2021/10/06 11:09:47;;;;;;;5.00;3.95;;;;;;;16.22;84.23;100312.48;1754165;82;20996;-89
2021/10/06 11:12:19;;;;;;;6.00;4.05;;;;;;;16.24;84.16;100311.02;1753896;82;20992;-88
2021/10/06 11:14:49;;;;;;;7.40;4.20;;;;;;;16.23;84.34;100310.19;1754102;82;20985;-89
2021/10/06 11:17:19;;;;;;;6.80;4.58;;;;;;;16.26;84.12;100315.72;1750454;82;21016;-89
2021/10/06 11:19:55;;;;;;;8.03;4.53;;;;;;;16.28;84.34;100311.06;1754052;82;21015;-89
2021/10/06 11:22:32;;;;;;;7.00;5.40;;;;;;;16.29;84.09;100305.61;1753771;82;21048;-89
2021/10/06 11:25:05;;;;;;;6.47;4.20;;;;;;;16.34;84.29;100307.81;1754316;82;21028;-88
2021/10/06 11:27:49;;;;;;;6.62;4.33;;;;;;;16.38;84.42;100308.68;1753651;82;21029;-88
2021/10/06 11:30:19;;;;;;;5.60;3.85;;;;;;;16.39;84.27;100315.70;1753950;82;21471;-89